Aérodrome :
LOGIN :

S'inscrire | Disclaimer

   EN    FR    IT 

 










Légende :    VFR   VFR Marginal   IFR   IFR Intensif   IFR Très Intensif
Visi : 
Plafond : 
>= 8 km
>= 3000ft
5 à 8 km
1000 à 3000 ft
1500m à 5 km
500 à 1000 ft
800 à 1500m
200 à 500 ft
< 800m
< 200 ft
Symboles :   Orages  Brouillard  Fortes neiges  Fortes précipitations  Vent > 20 kt
SIGMETs :   Divers  Orages  Givrage  Turbulence  Onde Orograph.  Cendres Volcan.






- Altitude de l'aérodrome : 468 ft
- Code IATA : GRO


LEGE - Girona Costa Brava

DERNIER METAR :
  • 180000Z 32002KT CAVOK 14/12 Q1015

METARs EXPIRÉS :
  • 172330Z 32003KT CAVOK 15/13 Q1015
  • 172300Z 00000KT CAVOK 15/13 Q1016
  • 172230Z 00000KT CAVOK 15/13 Q1016
  • 172200Z 06005KT CAVOK 16/13 Q1016
  • 172130Z 04005KT CAVOK 16/13 Q1016

TAF TAF LEGE
Valide du 18 à 00h jusqu'au 19 à 00h UTC


172300Z 1800/1824 33005KT 9999 FEW020 TX27/1813Z TN11/1806Z
BECMG 1810/1812 18010KT
BECMG 1817/1819 VRB03KT



MET'MAP, la Météo Aéronautique d'un coup d'oeil ! - Copyright ORBIFLY Décembre 2007 - Disclaimer

ORBIFLY MET'MAP TEAM :

Programmation & Développement : Alexandra Zaïnal
Conception & Développement : Baudouin d'Aumeries
Co-Programmation & Développement : Marc-Olivier Méhu
Soutien technique & logistique : Manuel Goepfert

Contact : metmap@orbifly.com




SOURCES & CREDITS :

   NOAA